sensor_id;sensor_type;location;lat;lon;timestamp;pressure;altitude;pressure_sealevel;temperature;humidity
30873;BME280;17579;42.690;2.586;2023-02-21T00:02:12;97760.16;;;12.13;50.54
30873;BME280;17579;42.690;2.586;2023-02-21T00:04:39;97763.25;;;12.09;50.47
30873;BME280;17579;42.690;2.586;2023-02-21T00:07:05;97756.16;;;12.00;50.47
30873;BME280;17579;42.690;2.586;2023-02-21T00:09:32;97752.63;;;11.89;50.62
30873;BME280;17579;42.690;2.586;2023-02-21T00:11:58;97749.16;;;11.79;50.79
30873;BME280;17579;42.690;2.586;2023-02-21T00:14:24;97752.22;;;11.74;50.98
30873;BME280;17579;42.690;2.586;2023-02-21T00:16:50;97749.28;;;11.68;51.25
30873;BME280;17579;42.690;2.586;2023-02-21T00:19:17;97753.75;;;11.67;51.61
30873;BME280;17579;42.690;2.586;2023-02-21T00:21:43;97742.50;;;11.65;51.59
30873;BME280;17579;42.690;2.586;2023-02-21T00:24:12;97738.44;;;11.61;51.80
30873;BME280;17579;42.690;2.586;2023-02-21T00:26:39;97739.13;;;11.63;52.06
30873;BME280;17579;42.690;2.586;2023-02-21T00:29:06;97737.72;;;11.59;52.19
30873;BME280;17579;42.690;2.586;2023-02-21T00:31:32;97737.88;;;11.57;52.11
30873;BME280;17579;42.690;2.586;2023-02-21T00:33:58;97721.28;;;11.55;52.39
30873;BME280;17579;42.690;2.586;2023-02-21T00:36:24;97731.03;;;11.55;52.66
30873;BME280;17579;42.690;2.586;2023-02-21T00:38:51;97722.69;;;11.50;52.91
30873;BME280;17579;42.690;2.586;2023-02-21T00:41:17;97721.28;;;11.46;53.18
30873;BME280;17579;42.690;2.586;2023-02-21T00:43:43;97723.25;;;11.43;53.25
30873;BME280;17579;42.690;2.586;2023-02-21T00:46:10;97721.00;;;11.39;53.11
30873;BME280;17579;42.690;2.586;2023-02-21T00:48:36;97715.97;;;11.36;53.37
30873;BME280;17579;42.690;2.586;2023-02-21T00:51:02;97724.88;;;11.35;53.25
30873;BME280;17579;42.690;2.586;2023-02-21T00:53:29;97727.00;;;11.31;53.18
30873;BME280;17579;42.690;2.586;2023-02-21T00:55:55;97726.16;;;11.31;53.47
30873;BME280;17579;42.690;2.586;2023-02-21T00:58:21;97731.47;;;11.31;53.19
30873;BME280;17579;42.690;2.586;2023-02-21T01:00:48;97720.88;;;11.31;53.18
30873;BME280;17579;42.690;2.586;2023-02-21T01:03:14;97727.94;;;11.30;53.24
30873;BME280;17579;42.690;2.586;2023-02-21T01:05:40;97719.72;;;11.33;53.47
30873;BME280;17579;42.690;2.586;2023-02-21T01:08:07;97721.41;;;11.34;53.39
30873;BME280;17579;42.690;2.586;2023-02-21T01:10:33;97715.28;;;11.34;53.57
30873;BME280;17579;42.690;2.586;2023-02-21T01:13:00;97718.91;;;11.33;53.70
30873;BME280;17579;42.690;2.586;2023-02-21T01:15:26;97719.72;;;11.33;53.61
30873;BME280;17579;42.690;2.586;2023-02-21T01:17:52;97719.44;;;11.36;53.67
30873;BME280;17579;42.690;2.586;2023-02-21T01:20:18;97721.28;;;11.36;53.71
30873;BME280;17579;42.690;2.586;2023-02-21T01:22:45;97716.13;;;11.34;53.70
30873;BME280;17579;42.690;2.586;2023-02-21T01:25:12;97717.22;;;11.32;54.02
30873;BME280;17579;42.690;2.586;2023-02-21T01:27:38;97713.88;;;11.30;53.98
30873;BME280;17579;42.690;2.586;2023-02-21T01:30:05;97719.59;;;11.25;54.01
30873;BME280;17579;42.690;2.586;2023-02-21T01:32:31;97712.91;;;11.21;54.56
30873;BME280;17579;42.690;2.586;2023-02-21T01:34:58;97719.03;;;11.21;54.57
30873;BME280;17579;42.690;2.586;2023-02-21T01:37:24;97721.69;;;11.21;54.38
30873;BME280;17579;42.690;2.586;2023-02-21T01:39:50;97716.25;;;11.23;54.80
30873;BME280;17579;42.690;2.586;2023-02-21T01:42:17;97712.50;;;11.25;54.97
30873;BME280;17579;42.690;2.586;2023-02-21T01:44:44;97718.31;;;11.29;55.25
30873;BME280;17579;42.690;2.586;2023-02-21T01:47:12;97718.91;;;11.33;55.42
30873;BME280;17579;42.690;2.586;2023-02-21T01:49:39;97714.44;;;11.33;55.20
30873;BME280;17579;42.690;2.586;2023-02-21T01:52:06;97714.16;;;11.36;55.30
30873;BME280;17579;42.690;2.586;2023-02-21T01:54:38;97712.50;;;11.35;55.17
30873;BME280;17579;42.690;2.586;2023-02-21T01:57:07;97711.78;;;11.43;55.37
30873;BME280;17579;42.690;2.586;2023-02-21T01:59:33;97702.59;;;11.47;55.87
30873;BME280;17579;42.690;2.586;2023-02-21T02:02:08;97705.81;;;11.51;55.29
30873;BME280;17579;42.690;2.586;2023-02-21T02:04:36;97703.13;;;11.60;56.08
30873;BME280;17579;42.690;2.586;2023-02-21T02:07:03;97703.72;;;11.64;56.12
30873;BME280;17579;42.690;2.586;2023-02-21T02:09:29;97692.69;;;11.69;56.33
30873;BME280;17579;42.690;2.586;2023-02-21T02:15:14;97687.38;;;11.69;55.43
30873;BME280;17579;42.690;2.586;2023-02-21T02:18:08;97685.41;;;11.71;55.55
30873;BME280;17579;42.690;2.586;2023-02-21T02:23:42;97687.53;;;11.67;55.48
30873;BME280;17579;42.690;2.586;2023-02-21T02:29:02;97664.63;;;11.76;56.20
30873;BME280;17579;42.690;2.586;2023-02-21T02:40:42;97660.75;;;11.70;55.87
30873;BME280;17579;42.690;2.586;2023-02-21T02:43:14;97655.44;;;11.70;56.81
30873;BME280;17579;42.690;2.586;2023-02-21T02:45:46;97653.75;;;11.69;56.77
30873;BME280;17579;42.690;2.586;2023-02-21T02:48:20;97650.28;;;11.69;56.54
30873;BME280;17579;42.690;2.586;2023-02-21T02:50:48;97652.94;;;11.69;56.75
30873;BME280;17579;42.690;2.586;2023-02-21T02:53:19;97648.59;;;11.68;56.90
30873;BME280;17579;42.690;2.586;2023-02-21T02:55:49;97654.91;;;11.67;56.71
30873;BME280;17579;42.690;2.586;2023-02-21T02:58:18;97650.44;;;11.67;57.25
30873;BME280;17579;42.690;2.586;2023-02-21T03:00:57;97648.75;;;11.66;56.98
30873;BME280;17579;42.690;2.586;2023-02-21T03:03:32;97643.72;;;11.73;57.32
30873;BME280;17579;42.690;2.586;2023-02-21T03:08:49;97642.63;;;11.75;57.52
30873;BME280;17579;42.690;2.586;2023-02-21T03:11:18;97638.13;;;11.76;57.34
30873;BME280;17579;42.690;2.586;2023-02-21T03:13:48;97640.78;;;11.76;57.16
30873;BME280;17579;42.690;2.586;2023-02-21T03:16:22;97630.63;;;11.71;57.13
30873;BME280;17579;42.690;2.586;2023-02-21T03:18:53;97628.13;;;11.70;57.13
30873;BME280;17579;42.690;2.586;2023-02-21T03:21:26;97626.59;;;11.67;57.09
30873;BME280;17579;42.690;2.586;2023-02-21T03:23:56;97621.88;;;11.61;57.08
30873;BME280;17579;42.690;2.586;2023-02-21T03:26:24;97631.59;;;11.60;57.40
30873;BME280;17579;42.690;2.586;2023-02-21T03:28:52;97620.88;;;11.62;57.41
30873;BME280;17579;42.690;2.586;2023-02-21T03:31:22;97620.88;;;11.62;57.50
30873;BME280;17579;42.690;2.586;2023-02-21T03:33:50;97615.97;;;11.67;57.81
30873;BME280;17579;42.690;2.586;2023-02-21T03:36:15;97616.66;;;11.69;57.88
30873;BME280;17579;42.690;2.586;2023-02-21T03:38:41;97615.69;;;11.70;57.59
30873;BME280;17579;42.690;2.586;2023-02-21T03:41:07;97604.94;;;11.72;58.04
30873;BME280;17579;42.690;2.586;2023-02-21T03:43:34;97605.66;;;11.74;57.82
30873;BME280;17579;42.690;2.586;2023-02-21T03:45:59;97604.50;;;11.76;58.04
30873;BME280;17579;42.690;2.586;2023-02-21T03:48:25;97607.03;;;11.78;57.70
30873;BME280;17579;42.690;2.586;2023-02-21T03:50:50;97603.97;;;11.73;57.71
30873;BME280;17579;42.690;2.586;2023-02-21T03:53:16;97605.81;;;11.72;57.91
30873;BME280;17579;42.690;2.586;2023-02-21T03:55:41;97612.75;;;11.73;57.97
30873;BME280;17579;42.690;2.586;2023-02-21T03:58:07;97603.00;;;11.74;57.89
30873;BME280;17579;42.690;2.586;2023-02-21T04:00:33;97599.22;;;11.76;58.13
30873;BME280;17579;42.690;2.586;2023-02-21T04:02:58;97599.22;;;11.76;58.01
30873;BME280;17579;42.690;2.586;2023-02-21T04:05:24;97605.38;;;11.77;57.76
30873;BME280;17579;42.690;2.586;2023-02-21T04:07:49;97599.22;;;11.76;57.63
30873;BME280;17579;42.690;2.586;2023-02-21T04:10:15;97601.03;;;11.76;57.58
30873;BME280;17579;42.690;2.586;2023-02-21T04:12:41;97590.72;;;11.73;57.97
30873;BME280;17579;42.690;2.586;2023-02-21T04:15:06;97595.06;;;11.74;58.12
30873;BME280;17579;42.690;2.586;2023-02-21T04:17:32;97594.91;;;11.75;58.05
30873;BME280;17579;42.690;2.586;2023-02-21T04:19:58;97593.78;;;11.78;57.90
30873;BME280;17579;42.690;2.586;2023-02-21T04:22:23;97596.44;;;11.78;57.88
30873;BME280;17579;42.690;2.586;2023-02-21T04:24:49;97593.78;;;11.78;57.94
30873;BME280;17579;42.690;2.586;2023-02-21T04:27:15;97594.06;;;11.75;58.04
30873;BME280;17579;42.690;2.586;2023-02-21T04:29:41;97594.06;;;11.75;58.02
30873;BME280;17579;42.690;2.586;2023-02-21T04:32:08;97589.75;;;11.74;58.11
30873;BME280;17579;42.690;2.586;2023-02-21T04:34:34;97591.25;;;11.76;57.98
30873;BME280;17579;42.690;2.586;2023-02-21T04:37:00;97586.09;;;11.75;58.09
30873;BME280;17579;42.690;2.586;2023-02-21T04:39:25;97581.50;;;11.77;58.18
30873;BME280;17579;42.690;2.586;2023-02-21T04:41:51;97583.19;;;11.78;58.07
30873;BME280;17579;42.690;2.586;2023-02-21T04:44:17;97586.81;;;11.77;58.15
30873;BME280;17579;42.690;2.586;2023-02-21T04:46:42;97581.38;;;11.78;57.98
30873;BME280;17579;42.690;2.586;2023-02-21T04:49:11;97587.63;;;11.77;57.79
30873;BME280;17579;42.690;2.586;2023-02-21T04:51:37;97585.13;;;11.76;57.91
30873;BME280;17579;42.690;2.586;2023-02-21T04:54:02;97588.22;;;11.71;57.85
30873;BME280;17579;42.690;2.586;2023-02-21T04:56:28;97581.41;;;11.69;58.16
30873;BME280;17579;42.690;2.586;2023-02-21T04:58:54;97583.91;;;11.70;58.11
30873;BME280;17579;42.690;2.586;2023-02-21T05:01:20;97581.25;;;11.70;58.38
30873;BME280;17579;42.690;2.586;2023-02-21T05:03:47;97579.72;;;11.68;57.95
30873;BME280;17579;42.690;2.586;2023-02-21T05:06:24;97580.44;;;11.60;57.68
30873;BME280;17579;42.690;2.586;2023-02-21T05:08:49;97581.97;;;11.63;58.21
30873;BME280;17579;42.690;2.586;2023-02-21T05:11:17;97579.47;;;11.61;58.58
30873;BME280;17579;42.690;2.586;2023-02-21T05:13:43;97578.47;;;11.62;58.38
30873;BME280;17579;42.690;2.586;2023-02-21T05:16:08;97579.31;;;11.63;58.49
30873;BME280;17579;42.690;2.586;2023-02-21T05:18:34;97575.69;;;11.64;58.56
30873;BME280;17579;42.690;2.586;2023-02-21T05:21:01;97576.38;;;11.66;58.47
30873;BME280;17579;42.690;2.586;2023-02-21T05:23:27;97572.06;;;11.65;58.39
30873;BME280;17579;42.690;2.586;2023-02-21T05:25:53;97576.53;;;11.64;58.37
30873;BME280;17579;42.690;2.586;2023-02-21T05:28:19;97577.66;;;11.61;58.23
30873;BME280;17579;42.690;2.586;2023-02-21T05:30:44;97570.53;;;11.62;58.57
30873;BME280;17579;42.690;2.586;2023-02-21T05:33:10;97559.94;;;11.62;58.20
30873;BME280;17579;42.690;2.586;2023-02-21T05:35:35;97564.53;;;11.60;58.45
30873;BME280;17579;42.690;2.586;2023-02-21T05:38:01;97563.88;;;11.58;58.51
30873;BME280;17579;42.690;2.586;2023-02-21T05:40:26;97566.53;;;11.58;58.51
30873;BME280;17579;42.690;2.586;2023-02-21T05:42:52;97555.06;;;11.57;58.72
30873;BME280;17579;42.690;2.586;2023-02-21T05:45:18;97553.28;;;11.58;58.62
30873;BME280;17579;42.690;2.586;2023-02-21T05:47:43;97554.09;;;11.58;58.66
30873;BME280;17579;42.690;2.586;2023-02-21T05:50:09;97555.91;;;11.58;58.98
30873;BME280;17579;42.690;2.586;2023-02-21T05:52:34;97551.31;;;11.60;59.03
30873;BME280;17579;42.690;2.586;2023-02-21T05:55:00;97550.47;;;11.59;58.78
30873;BME280;17579;42.690;2.586;2023-02-21T05:57:25;97547.97;;;11.58;58.87
30873;BME280;17579;42.690;2.586;2023-02-21T05:59:51;97548.81;;;11.58;59.07
30873;BME280;17579;42.690;2.586;2023-02-21T06:02:16;97537.22;;;11.59;58.95
30873;BME280;17579;42.690;2.586;2023-02-21T06:04:42;97535.41;;;11.60;59.11
30873;BME280;17579;42.690;2.586;2023-02-21T06:07:08;97550.19;;;11.63;59.15
30873;BME280;17579;42.690;2.586;2023-02-21T06:09:34;97541.38;;;11.62;59.10
30873;BME280;17579;42.690;2.586;2023-02-21T06:11:59;97540.41;;;11.63;59.12
30873;BME280;17579;42.690;2.586;2023-02-21T06:14:25;97539.44;;;11.64;59.39
30873;BME280;17579;42.690;2.586;2023-02-21T06:16:51;97540.25;;;11.65;59.31
30873;BME280;17579;42.690;2.586;2023-02-21T06:19:17;97540.13;;;11.66;59.27
30873;BME280;17579;42.690;2.586;2023-02-21T06:21:43;97544.44;;;11.67;59.12
30873;BME280;17579;42.690;2.586;2023-02-21T06:24:10;97536.50;;;11.67;59.18
30873;BME280;17579;42.690;2.586;2023-02-21T06:26:36;97541.78;;;11.67;59.18
30873;BME280;17579;42.690;2.586;2023-02-21T06:29:03;97541.13;;;11.65;59.03
30873;BME280;17579;42.690;2.586;2023-02-21T06:31:29;97538.31;;;11.67;58.89
30873;BME280;17579;42.690;2.586;2023-02-21T06:33:54;97537.31;;;11.68;59.34
30873;BME280;17579;42.690;2.586;2023-02-21T06:36:23;97539.97;;;11.68;58.97
30873;BME280;17579;42.690;2.586;2023-02-21T06:38:50;97532.88;;;11.68;59.41
30873;BME280;17579;42.690;2.586;2023-02-21T06:41:18;97539.16;;;11.67;59.44
30873;BME280;17579;42.690;2.586;2023-02-21T06:43:44;97532.59;;;11.71;59.56
30873;BME280;17579;42.690;2.586;2023-02-21T06:46:16;97535.38;;;11.70;59.43
30873;BME280;17579;42.690;2.586;2023-02-21T06:48:42;97536.75;;;11.74;59.53
30873;BME280;17579;42.690;2.586;2023-02-21T06:51:07;97536.91;;;11.72;59.39
30873;BME280;17579;42.690;2.586;2023-02-21T06:53:36;97544.28;;;11.69;59.29
30873;BME280;17579;42.690;2.586;2023-02-21T06:56:03;97540.97;;;11.67;59.45
30873;BME280;17579;42.690;2.586;2023-02-21T06:58:29;97553.13;;;11.59;59.31
30873;BME280;17579;42.690;2.586;2023-02-21T07:00:54;97555.66;;;11.51;59.01
30873;BME280;17579;42.690;2.586;2023-02-21T07:03:20;97554.41;;;11.46;59.21
30873;BME280;17579;42.690;2.586;2023-02-21T07:05:46;97555.53;;;11.43;59.16
30873;BME280;17579;42.690;2.586;2023-02-21T07:08:11;97562.38;;;11.36;59.33
30873;BME280;17579;42.690;2.586;2023-02-21T07:10:37;97561.53;;;11.35;59.15
30873;BME280;17579;42.690;2.586;2023-02-21T07:13:03;97560.28;;;11.39;59.27
30873;BME280;17579;42.690;2.586;2023-02-21T07:15:28;97562.66;;;11.42;59.71
30873;BME280;17579;42.690;2.586;2023-02-21T07:17:54;97555.22;;;11.46;59.41
30873;BME280;17579;42.690;2.586;2023-02-21T07:20:19;97569.03;;;11.50;59.65
30873;BME280;17579;42.690;2.586;2023-02-21T07:22:45;97565.28;;;11.52;59.37
30873;BME280;17579;42.690;2.586;2023-02-21T07:25:14;97563.31;;;11.54;59.26
30873;BME280;17579;42.690;2.586;2023-02-21T07:27:40;97575.28;;;11.58;59.65
30873;BME280;17579;42.690;2.586;2023-02-21T07:30:06;97577.78;;;11.60;59.48
30873;BME280;17579;42.690;2.586;2023-02-21T07:32:32;97576.69;;;11.63;59.69
30873;BME280;17579;42.690;2.586;2023-02-21T07:34:57;97573.75;;;11.66;59.68
30873;BME280;17579;42.690;2.586;2023-02-21T07:37:23;97572.91;;;11.65;59.75
30873;BME280;17579;42.690;2.586;2023-02-21T07:39:49;97579.84;;;11.66;59.91
30873;BME280;17579;42.690;2.586;2023-02-21T07:42:14;97581.41;;;11.69;59.65
30873;BME280;17579;42.690;2.586;2023-02-21T07:44:40;97578.59;;;11.70;59.65
30873;BME280;17579;42.690;2.586;2023-02-21T07:47:05;97577.47;;;11.73;60.07
30873;BME280;17579;42.690;2.586;2023-02-21T07:49:31;97577.34;;;11.74;60.07
30873;BME280;17579;42.690;2.586;2023-02-21T07:52:02;97586.66;;;11.78;59.93
30873;BME280;17579;42.690;2.586;2023-02-21T07:54:28;97582.19;;;11.79;60.08
30873;BME280;17579;42.690;2.586;2023-02-21T07:56:53;97581.22;;;11.80;60.18
30873;BME280;17579;42.690;2.586;2023-02-21T07:59:19;97585.56;;;11.81;60.04
30873;BME280;17579;42.690;2.586;2023-02-21T08:01:45;97586.22;;;11.83;60.17
30873;BME280;17579;42.690;2.586;2023-02-21T08:04:12;97594.03;;;11.85;59.94
30873;BME280;17579;42.690;2.586;2023-02-21T08:06:37;97589.63;;;11.75;59.66
30873;BME280;17579;42.690;2.586;2023-02-21T08:09:04;97590.75;;;11.63;59.35
30873;BME280;17579;42.690;2.586;2023-02-21T08:11:31;97589.13;;;11.52;59.51
30873;BME280;17579;42.690;2.586;2023-02-21T08:13:58;97587.44;;;11.51;59.35
30873;BME280;17579;42.690;2.586;2023-02-21T08:16:23;97593.19;;;11.37;59.52
30873;BME280;17579;42.690;2.586;2023-02-21T08:18:49;97596.13;;;11.24;59.71
30873;BME280;17579;42.690;2.586;2023-02-21T08:21:15;97590.16;;;11.12;60.06
30873;BME280;17579;42.690;2.586;2023-02-21T08:23:41;97582.75;;;11.06;59.99
30873;BME280;17579;42.690;2.586;2023-02-21T08:26:07;97585.66;;;11.03;60.19
30873;BME280;17579;42.690;2.586;2023-02-21T08:28:32;97581.09;;;11.05;60.31
30873;BME280;17579;42.690;2.586;2023-02-21T08:30:58;97576.75;;;11.14;60.39
30873;BME280;17579;42.690;2.586;2023-02-21T08:33:23;97574.13;;;11.23;60.18
30873;BME280;17579;42.690;2.586;2023-02-21T08:35:49;97583.03;;;11.32;60.16
30873;BME280;17579;42.690;2.586;2023-02-21T08:38:17;97575.31;;;11.39;60.05
30873;BME280;17579;42.690;2.586;2023-02-21T08:40:42;97577.00;;;11.40;59.96
30873;BME280;17579;42.690;2.586;2023-02-21T08:43:09;97573.53;;;11.30;60.12
30873;BME280;17579;42.690;2.586;2023-02-21T08:45:35;97569.78;;;11.22;60.03
30873;BME280;17579;42.690;2.586;2023-02-21T08:48:01;97561.56;;;11.25;60.32
30873;BME280;17579;42.690;2.586;2023-02-21T08:50:28;97558.47;;;11.30;60.78
30873;BME280;17579;42.690;2.586;2023-02-21T08:52:54;97564.72;;;11.39;60.74
30873;BME280;17579;42.690;2.586;2023-02-21T08:55:21;97563.75;;;11.40;60.63
30873;BME280;17579;42.690;2.586;2023-02-21T08:57:48;97567.38;;;11.39;60.61
30873;BME280;17579;42.690;2.586;2023-02-21T09:00:15;97563.19;;;11.36;60.79
30873;BME280;17579;42.690;2.586;2023-02-21T09:02:40;97574.50;;;11.38;60.82
30873;BME280;17579;42.690;2.586;2023-02-21T09:05:16;97564.34;;;11.34;60.58
30873;BME280;17579;42.690;2.586;2023-02-21T09:07:43;97566.13;;;11.43;61.33
30873;BME280;17579;42.690;2.586;2023-02-21T09:10:10;97557.19;;;11.54;61.37
30873;BME280;17579;42.690;2.586;2023-02-21T09:12:37;97560.50;;;11.56;60.90
30873;BME280;17579;42.690;2.586;2023-02-21T09:15:03;97550.88;;;11.55;61.25
30873;BME280;17579;42.690;2.586;2023-02-21T09:17:29;97554.69;;;11.52;61.13
30873;BME280;17579;42.690;2.586;2023-02-21T09:20:02;97559.41;;;11.49;60.92
30873;BME280;17579;42.690;2.586;2023-02-21T09:22:29;97559.41;;;11.49;61.20
30873;BME280;17579;42.690;2.586;2023-02-21T09:24:56;97558.59;;;11.48;61.13
30873;BME280;17579;42.690;2.586;2023-02-21T09:27:22;97564.03;;;11.47;61.03
30873;BME280;17579;42.690;2.586;2023-02-21T09:30:04;97560.44;;;11.38;61.35
30873;BME280;17579;42.690;2.586;2023-02-21T09:32:30;97564.72;;;11.39;61.61
30873;BME280;17579;42.690;2.586;2023-02-21T09:34:56;97567.38;;;11.39;61.47
30873;BME280;17579;42.690;2.586;2023-02-21T09:37:22;97566.41;;;11.40;61.54
30873;BME280;17579;42.690;2.586;2023-02-21T09:39:47;97561.94;;;11.40;61.81
30873;BME280;17579;42.690;2.586;2023-02-21T09:42:16;97565.16;;;11.44;61.52
30873;BME280;17579;42.690;2.586;2023-02-21T09:44:42;97565.28;;;11.42;61.63
30873;BME280;17579;42.690;2.586;2023-02-21T09:47:14;97562.66;;;11.42;61.59
30873;BME280;17579;42.690;2.586;2023-02-21T09:49:44;97561.09;;;11.50;61.81
30873;BME280;17579;42.690;2.586;2023-02-21T09:52:17;97565.53;;;11.59;61.70
30873;BME280;17579;42.690;2.586;2023-02-21T09:54:46;97560.34;;;11.67;61.62
30873;BME280;17579;42.690;2.586;2023-02-21T09:57:17;97551.44;;;11.68;61.65
30873;BME280;17579;42.690;2.586;2023-02-21T09:59:43;97562.69;;;11.70;61.60
30873;BME280;17579;42.690;2.586;2023-02-21T10:02:33;97563.66;;;11.69;61.29
30873;BME280;17579;42.690;2.586;2023-02-21T10:08:13;97565.72;;;11.85;61.27
30873;BME280;17579;42.690;2.586;2023-02-21T10:10:47;97558.47;;;11.87;61.37
30873;BME280;17579;42.690;2.586;2023-02-21T10:15:53;97551.03;;;11.91;61.39
30873;BME280;17579;42.690;2.586;2023-02-21T10:18:30;97562.50;;;12.01;61.47
30873;BME280;17579;42.690;2.586;2023-02-21T10:20:58;97558.13;;;12.10;61.39
30873;BME280;17579;42.690;2.586;2023-02-21T10:23:36;97556.75;;;12.06;61.42
30873;BME280;17579;42.690;2.586;2023-02-21T10:26:06;97560.22;;;12.06;61.35
30873;BME280;17579;42.690;2.586;2023-02-21T10:28:34;97562.41;;;12.11;61.58
30873;BME280;17579;42.690;2.586;2023-02-21T10:31:04;97559.38;;;12.06;61.35
30873;BME280;17579;42.690;2.586;2023-02-21T10:33:35;97549.47;;;12.08;61.58
30873;BME280;17579;42.690;2.586;2023-02-21T10:36:01;97546.66;;;12.09;61.31
30873;BME280;17579;42.690;2.586;2023-02-21T10:38:27;97549.03;;;12.12;61.66
30873;BME280;17579;42.690;2.586;2023-02-21T10:40:56;97543.59;;;12.14;61.54
30873;BME280;17579;42.690;2.586;2023-02-21T10:48:20;97542.09;;;12.29;61.33
30873;BME280;17579;42.690;2.586;2023-02-21T10:51:04;97540.19;;;12.22;61.04
30873;BME280;17579;42.690;2.586;2023-02-21T10:53:32;97540.47;;;12.19;61.27
30873;BME280;17579;42.690;2.586;2023-02-21T10:58:27;97537.28;;;12.15;61.75
30873;BME280;17579;42.690;2.586;2023-02-21T11:00:52;97537.97;;;12.17;61.81
30873;BME280;17579;42.690;2.586;2023-02-21T11:03:22;97532.53;;;12.19;61.39
30873;BME280;17579;42.690;2.586;2023-02-21T11:05:54;97522.53;;;12.30;61.25
30873;BME280;17579;42.690;2.586;2023-02-21T11:08:38;97527.38;;;12.35;61.59
30873;BME280;17579;42.690;2.586;2023-02-21T11:11:04;97524.22;;;12.50;61.39
30873;BME280;17579;42.690;2.586;2023-02-21T11:13:31;97526.50;;;12.44;60.98
30873;BME280;17579;42.690;2.586;2023-02-21T11:18:44;97517.94;;;12.33;61.09
30873;BME280;17579;42.690;2.586;2023-02-21T11:21:27;97511.31;;;12.19;61.14
30873;BME280;17579;42.690;2.586;2023-02-21T11:23:56;97507.91;;;12.26;61.02
30873;BME280;17579;42.690;2.586;2023-02-21T11:26:28;97502.44;;;12.28;61.01
30873;BME280;17579;42.690;2.586;2023-02-21T11:29:09;97497.00;;;12.29;61.19
30873;BME280;17579;42.690;2.586;2023-02-21T11:31:36;97494.97;;;12.41;61.26
30873;BME280;17579;42.690;2.586;2023-02-21T11:34:04;97486.72;;;12.44;61.17
30873;BME280;17579;42.690;2.586;2023-02-21T11:36:33;97488.09;;;12.48;61.29
30873;BME280;17579;42.690;2.586;2023-02-21T11:39:02;97494.72;;;12.53;61.14
30873;BME280;17579;42.690;2.586;2023-02-21T11:41:47;97490.94;;;12.55;61.33
30873;BME280;17579;42.690;2.586;2023-02-21T11:46:43;97481.09;;;12.65;60.98
30873;BME280;17579;42.690;2.586;2023-02-21T11:49:17;97478.00;;;12.70;61.15
30873;BME280;17579;42.690;2.586;2023-02-21T11:52:02;97468.03;;;12.72;60.66
30873;BME280;17579;42.690;2.586;2023-02-21T11:54:30;97468.59;;;12.76;60.40
30873;BME280;17579;42.690;2.586;2023-02-21T12:00:25;97463.13;;;12.77;60.54
30873;BME280;17579;42.690;2.586;2023-02-21T12:05:31;97454.09;;;12.70;60.44
30873;BME280;17579;42.690;2.586;2023-02-21T12:10:48;97450.84;;;12.76;60.87
30873;BME280;17579;42.690;2.586;2023-02-21T12:16:15;97441.66;;;12.71;60.67
30873;BME280;17579;42.690;2.586;2023-02-21T12:19:04;97434.44;;;12.81;60.57
30873;BME280;17579;42.690;2.586;2023-02-21T12:27:31;97422.75;;;12.92;60.63
30873;BME280;17579;42.690;2.586;2023-02-21T12:30:13;97413.34;;;13.06;60.30
30873;BME280;17579;42.690;2.586;2023-02-21T12:32:48;97411.22;;;13.09;59.97
30873;BME280;17579;42.690;2.586;2023-02-21T12:38:10;97400.53;;;13.27;60.28
30873;BME280;17579;42.690;2.586;2023-02-21T12:40:43;97403.25;;;13.36;60.10
30873;BME280;17579;42.690;2.586;2023-02-21T12:43:49;97400.91;;;13.32;60.29
30873;BME280;17579;42.690;2.586;2023-02-21T12:48:48;97388.59;;;13.31;59.43
30873;BME280;17579;42.690;2.586;2023-02-21T12:51:19;97396.88;;;13.28;59.85
30873;BME280;17579;42.690;2.586;2023-02-21T12:53:52;97395.22;;;13.27;59.50
30873;BME280;17579;42.690;2.586;2023-02-21T12:56:26;97387.72;;;13.23;59.47
30873;BME280;17579;42.690;2.586;2023-02-21T12:58:57;97388.03;;;13.20;59.80
30873;BME280;17579;42.690;2.586;2023-02-21T13:04:14;97385.03;;;13.14;59.92
30873;BME280;17579;42.690;2.586;2023-02-21T13:07:01;97379.25;;;13.19;60.12
30873;BME280;17579;42.690;2.586;2023-02-21T13:09:34;97377.81;;;13.33;59.78
30873;BME280;17579;42.690;2.586;2023-02-21T13:16:56;97363.94;;;13.47;59.51
30873;BME280;17579;42.690;2.586;2023-02-21T13:19:22;97358.63;;;13.47;59.41
30873;BME280;17579;42.690;2.586;2023-02-21T13:24:56;97358.16;;;13.17;59.48
30873;BME280;17579;42.690;2.586;2023-02-21T13:29:51;97355.31;;;13.11;60.02
30873;BME280;17579;42.690;2.586;2023-02-21T13:32:23;97349.34;;;13.17;60.00
30873;BME280;17579;42.690;2.586;2023-02-21T13:37:19;97347.72;;;13.16;60.09
30873;BME280;17579;42.690;2.586;2023-02-21T13:39:50;97345.38;;;13.21;59.82
30873;BME280;17579;42.690;2.586;2023-02-21T13:42:20;97332.97;;;13.22;60.00
30873;BME280;17579;42.690;2.586;2023-02-21T13:44:52;97352.22;;;13.24;59.84
30873;BME280;17579;42.690;2.586;2023-02-21T13:47:21;97341.63;;;13.32;59.84
30873;BME280;17579;42.690;2.586;2023-02-21T13:50:43;97344.13;;;13.33;59.97
30873;BME280;17579;42.690;2.586;2023-02-21T13:52:51;97334.38;;;13.42;59.83
30873;BME280;17579;42.690;2.586;2023-02-21T13:55:19;97332.72;;;13.41;59.78
30873;BME280;17579;42.690;2.586;2023-02-21T13:57:48;97335.16;;;13.34;59.85
30873;BME280;17579;42.690;2.586;2023-02-21T14:02:57;97324.25;;;13.38;59.81
30873;BME280;17579;42.690;2.586;2023-02-21T14:05:25;97330.72;;;13.35;59.39
30873;BME280;17579;42.690;2.586;2023-02-21T14:07:56;97333.78;;;13.22;59.37
30873;BME280;17579;42.690;2.586;2023-02-21T14:10:35;97328.28;;;13.15;60.09
30873;BME280;17579;42.690;2.586;2023-02-21T14:13:06;97324.63;;;13.16;59.86
30873;BME280;17579;42.690;2.586;2023-02-21T14:17:59;97314.34;;;13.13;59.67
30873;BME280;17579;42.690;2.586;2023-02-21T14:20:25;97311.50;;;13.15;60.05
30873;BME280;17579;42.690;2.586;2023-02-21T14:22:51;97306.84;;;13.17;60.14
30873;BME280;17579;42.690;2.586;2023-02-21T14:25:22;97300.72;;;13.16;60.19
30873;BME280;17579;42.690;2.586;2023-02-21T14:27:48;97304.03;;;13.18;59.94
30873;BME280;17579;42.690;2.586;2023-02-21T14:30:27;97302.69;;;13.14;60.22